Terminal Aerodrome Forecast
Issued by NWS

Home | Current Version | Previous Version | Graphics & Text | Print | Product List | Glossary On
Versions: 1 2 3 4 5 6 7 8 9 10 11 12 13 14 15 16 17 18 19
027
FTUS43 KBIS 212054 AAD
TAFMOT
TAF AMD
KMOT 212054Z 2121/2218 14022G32KT P6SM BKN045
     FM220900 15013KT P6SM BKN020
     FM221200 16011KT P6SM VCTS BKN020CB=

USA.gov is the U.S. government's official web portal to all federal, state and local government web resources and services.